Time;durP1;ratioP1;P1;durP2;ratioP2;P2;SDS_P1;SDS_P2;PMS_P1;PMS_P2;Temp;Humidity;BMP_temperature;BMP_pressure;BME280_temperature;BME280_humidity;BME280_pressure;Samples;Min_cycle;Max_cycle;Signal;HPM_P1;HPM_P2
2020/12/22 00:00:24;;;;;;;472.63;105.57;;;;;;;-2.09;100.00;99668.19;2024175;29;20224;-77
2020/12/22 00:01:25;;;;;;;417.73;103.53;;;;;;;-2.01;100.00;99665.38;2024030;29;20228;-77
2020/12/22 00:02:27;;;;;;;399.17;102.17;;;;;;;-2.06;100.00;99667.81;2024394;29;20228;-77
2020/12/22 00:03:28;;;;;;;407.75;107.22;;;;;;;-2.04;100.00;99655.31;2031998;29;20288;-77
2020/12/22 00:04:29;;;;;;;335.63;104.73;;;;;;;-2.12;100.00;99648.47;2032036;29;20247;-77
2020/12/22 00:05:30;;;;;;;442.90;106.85;;;;;;;-2.12;100.00;99645.06;2032030;29;20226;-77
2020/12/22 00:06:31;;;;;;;318.27;100.17;;;;;;;-2.18;100.00;99638.00;2032111;29;20230;-77
2020/12/22 00:07:32;;;;;;;394.90;106.50;;;;;;;-2.03;100.00;99656.94;2033362;29;20224;-78
2020/12/22 00:08:33;;;;;;;529.42;111.57;;;;;;;-2.14;100.00;99649.69;2032808;29;20286;-77
2020/12/22 00:09:35;;;;;;;488.13;110.17;;;;;;;-2.12;100.00;99656.31;2031857;29;20267;-77
2020/12/22 00:10:36;;;;;;;470.73;107.75;;;;;;;-2.30;100.00;99633.38;2024137;29;20228;-77
2020/12/22 00:11:37;;;;;;;296.53;95.77;;;;;;;-2.18;100.00;99648.47;2023780;29;20220;-77
2020/12/22 00:12:38;;;;;;;322.92;98.10;;;;;;;-2.19;100.00;99652.88;2023998;29;20239;-78
2020/12/22 00:13:40;;;;;;;424.40;106.27;;;;;;;-2.34;100.00;99631.38;2023032;29;20230;-77
2020/12/22 00:14:40;;;;;;;376.23;102.05;;;;;;;-2.24;100.00;99634.41;2031973;29;20538;-77
2020/12/22 00:15:42;;;;;;;273.70;94.07;;;;;;;-2.20;100.00;99646.03;2032612;29;20238;-76
2020/12/22 00:16:42;;;;;;;350.10;100.82;;;;;;;-2.26;100.00;99633.75;2031363;29;20668;-77
2020/12/22 00:17:45;;;;;;;373.97;99.93;;;;;;;-2.40;100.00;99613.84;2031902;29;20219;-78
2020/12/22 00:18:46;;;;;;;311.05;98.20;;;;;;;-2.25;100.00;99638.03;2031473;29;20233;-77
2020/12/22 00:19:47;;;;;;;386.05;104.50;;;;;;;-2.28;100.00;99636.59;2031841;29;20785;-76
2020/12/22 00:20:49;;;;;;;276.08;91.40;;;;;;;-2.30;100.00;99637.78;2031824;29;20235;-77
2020/12/22 00:21:50;;;;;;;317.80;94.93;;;;;;;-2.27;100.00;99646.03;2032810;29;20621;-77
2020/12/22 00:22:51;;;;;;;419.85;104.40;;;;;;;-2.24;100.00;99644.03;2031637;29;20227;-77
2020/12/22 00:23:52;;;;;;;294.27;95.97;;;;;;;-2.27;100.00;99650.44;2023598;29;20322;-77
2020/12/22 00:24:54;;;;;;;324.38;103.03;;;;;;;-2.33;100.00;99633.78;2024051;29;20235;-76
2020/12/22 00:25:55;;;;;;;356.52;106.93;;;;;;;-2.24;100.00;99644.84;2023782;29;20224;-76
2020/12/22 00:26:56;;;;;;;273.20;95.43;;;;;;;-2.41;100.00;99617.47;2023913;29;20243;-77
2020/12/22 00:27:57;;;;;;;298.43;98.17;;;;;;;-2.28;100.00;99641.81;2031966;29;20241;-77
2020/12/22 00:28:58;;;;;;;307.30;98.88;;;;;;;-2.25;100.00;99637.22;2031849;29;20304;-77
2020/12/22 00:30:03;;;;;;;276.60;99.13;;;;;;;-2.43;100.00;99617.69;2023934;29;20670;-77
2020/12/22 00:31:04;;;;;;;244.68;93.93;;;;;;;-2.28;100.00;99638.41;2024474;29;20224;-77
2020/12/22 00:32:06;;;;;;;269.77;93.45;;;;;;;-2.27;100.00;99645.22;2031642;29;20290;-77
2020/12/22 00:33:07;;;;;;;300.95;97.07;;;;;;;-2.28;100.00;99636.59;2032022;29;20227;-78
2020/12/22 00:34:08;;;;;;;266.95;95.00;;;;;;;-2.26;100.00;99641.59;2031309;29;20227;-77
2020/12/22 00:35:09;;;;;;;284.55;93.40;;;;;;;-2.18;100.00;99643.22;2031766;29;20238;-78
2020/12/22 00:36:10;;;;;;;297.37;94.40;;;;;;;-2.29;100.00;99632.38;2032570;29;20283;-77
2020/12/22 00:37:11;;;;;;;270.50;95.93;;;;;;;-2.30;100.00;99632.56;2031708;29;20219;-77
2020/12/22 00:38:12;;;;;;;263.27;91.57;;;;;;;-2.25;100.00;99640.63;2024040;29;20815;-77
2020/12/22 00:39:13;;;;;;;264.60;89.47;;;;;;;-2.30;100.00;99640.41;2024263;29;20232;-76
2020/12/22 00:40:15;;;;;;;250.40;90.50;;;;;;;-2.29;100.00;99631.56;2024004;29;20228;-77
2020/12/22 00:41:16;;;;;;;252.85;89.00;;;;;;;-2.27;100.00;99637.38;2032031;29;20228;-78
2020/12/22 00:42:18;;;;;;;234.53;89.10;;;;;;;-2.31;100.00;99637.00;2032375;29;20239;-77
2020/12/22 00:43:18;;;;;;;251.68;88.68;;;;;;;-2.35;100.00;99635.75;2032591;29;20234;-78
2020/12/22 00:44:20;;;;;;;255.17;87.57;;;;;;;-2.40;100.00;99630.34;2032673;29;20262;-77
2020/12/22 00:45:22;;;;;;;242.35;89.47;;;;;;;-2.42;100.00;99632.34;2032526;29;20227;-77
2020/12/22 00:46:23;;;;;;;334.13;96.40;;;;;;;-2.49;100.00;99626.28;2031707;29;20255;-76
2020/12/22 00:47:24;;;;;;;255.88;90.45;;;;;;;-2.51;100.00;99625.69;2031780;29;20242;-78
2020/12/22 00:48:25;;;;;;;246.65;86.72;;;;;;;-2.42;100.00;99634.97;2031839;29;20252;-77
2020/12/22 00:49:26;;;;;;;306.15;90.50;;;;;;;-2.46;100.00;99619.88;2031743;29;20238;-77
2020/12/22 00:50:27;;;;;;;540.93;103.00;;;;;;;-2.46;100.00;99625.91;2023436;29;20242;-77
2020/12/22 00:51:28;;;;;;;348.77;91.00;;;;;;;-2.52;100.00;99624.06;2031449;29;20227;-76
2020/12/22 00:52:33;;;;;;;272.65;89.00;;;;;;;-2.45;100.00;99619.66;2031573;29;20219;-77
2020/12/22 00:53:34;;;;;;;357.00;93.88;;;;;;;-2.42;100.00;99621.91;2023860;29;20244;-78
2020/12/22 00:54:36;;;;;;;360.83;95.47;;;;;;;-2.43;100.00;99625.53;2031867;29;20227;-76
2020/12/22 00:55:38;;;;;;;401.40;95.43;;;;;;;-2.41;100.00;99618.28;2023476;29;20228;-77
2020/12/22 00:56:39;;;;;;;323.98;92.72;;;;;;;-2.42;100.00;99624.50;2023992;29;20232;-77
2020/12/22 00:57:47;;;;;;;269.83;89.10;;;;;;;-2.53;100.00;99608.59;2032144;29;20749;-76
2020/12/22 00:58:49;;;;;;;345.63;94.00;;;;;;;-2.51;100.00;99617.84;2031347;29;20228;-77
2020/12/22 00:59:49;;;;;;;488.40;99.38;;;;;;;-2.54;100.00;99607.78;2031857;29;20223;-76
2020/12/22 01:00:51;;;;;;;515.50;101.30;;;;;;;-2.67;100.00;99586.88;2031776;29;20310;-77
2020/12/22 01:01:54;;;;;;;366.65;93.28;;;;;;;-2.56;100.00;99609.78;2032399;29;20736;-77
2020/12/22 01:02:55;;;;;;;359.55;95.72;;;;;;;-2.58;100.00;99593.53;2030302;29;20235;-77
2020/12/22 01:03:56;;;;;;;390.63;94.00;;;;;;;-2.50;100.00;99606.41;2023565;29;20258;-77
2020/12/22 01:04:58;;;;;;;475.55;97.03;;;;;;;-2.51;100.00;99612.63;2031869;29;20238;-77
2020/12/22 01:05:58;;;;;;;494.25;100.68;;;;;;;-2.62;100.00;99605.34;2031759;29;20665;-77
2020/12/22 01:07:00;;;;;;;373.97;93.53;;;;;;;-2.65;100.00;99590.88;2031568;29;20235;-77
2020/12/22 01:08:01;;;;;;;390.90;94.90;;;;;;;-2.57;100.00;99613.41;2032606;29;20232;-77
2020/12/22 01:09:02;;;;;;;347.40;89.77;;;;;;;-2.64;100.00;99597.72;2032104;29;20238;-77
2020/12/22 01:10:03;;;;;;;346.05;92.32;;;;;;;-2.57;100.00;99602.97;2031701;29;20582;-76
2020/12/22 01:11:05;;;;;;;332.58;88.85;;;;;;;-2.54;100.00;99601.75;2031640;29;20223;-77
2020/12/22 01:12:06;;;;;;;292.67;88.97;;;;;;;-2.55;100.00;99593.13;2032377;29;20283;-77
2020/12/22 01:13:07;;;;;;;315.83;91.53;;;;;;;-2.53;100.00;99590.31;2031959;29;20295;-76
2020/12/22 01:14:08;;;;;;;248.77;88.75;;;;;;;-2.50;100.00;99597.75;2032159;29;20447;-76
2020/12/22 01:15:10;;;;;;;355.35;88.75;;;;;;;-2.53;100.00;99593.72;2031576;29;20260;-76
2020/12/22 01:16:11;;;;;;;301.70;90.68;;;;;;;-2.57;100.00;99590.72;2031680;29;20613;-77
2020/12/22 01:17:12;;;;;;;295.58;89.45;;;;;;;-2.55;100.00;99587.91;2032118;29;21928;-76
2020/12/22 01:18:13;;;;;;;236.65;84.00;;;;;;;-2.61;100.00;99581.66;2031879;29;20675;-76
2020/12/22 01:19:14;;;;;;;349.70;88.20;;;;;;;-2.49;100.00;99587.13;2031579;29;20232;-77
2020/12/22 01:20:15;;;;;;;261.75;88.65;;;;;;;-2.50;100.00;99587.31;2031538;29;20264;-77
2020/12/22 01:21:20;;;;;;;264.27;85.83;;;;;;;-2.43;100.00;99586.31;2032381;29;20234;-77
2020/12/22 01:22:20;;;;;;;308.60;86.75;;;;;;;-2.40;100.00;99583.31;2031296;29;20547;-77
2020/12/22 01:23:22;;;;;;;242.87;80.63;;;;;;;-2.47;100.00;99572.03;2031368;29;20302;-76
2020/12/22 01:24:23;;;;;;;280.13;85.82;;;;;;;-2.38;100.00;99576.06;2032037;29;20227;-76
2020/12/22 01:25:24;;;;;;;256.58;84.93;;;;;;;-2.45;100.00;99567.41;2031590;29;20227;-77
2020/12/22 01:26:26;;;;;;;237.60;82.90;;;;;;;-2.43;100.00;99557.59;2023868;29;20671;-78
2020/12/22 01:27:27;;;;;;;239.20;77.75;;;;;;;-2.32;100.00;99572.66;2023757;29;20232;-77
2020/12/22 01:28:29;;;;;;;232.57;80.45;;;;;;;-2.41;100.00;99560.81;2031551;29;20233;-75
2020/12/22 01:29:30;;;;;;;244.45;82.43;;;;;;;-2.43;100.00;99561.97;2024022;29;20243;-76
2020/12/22 01:30:31;;;;;;;220.73;79.10;;;;;;;-2.54;100.00;99560.78;2031523;29;20279;-76
2020/12/22 01:31:32;;;;;;;297.27;82.07;;;;;;;-2.61;100.00;99576.44;2031742;29;20331;-76
2020/12/22 01:32:33;;;;;;;245.15;84.10;;;;;;;-2.66;100.00;99567.59;2031458;29;20227;-77
2020/12/22 01:33:34;;;;;;;248.77;84.47;;;;;;;-2.85;100.00;99554.28;2031826;29;20227;-76
2020/12/22 01:34:35;;;;;;;303.83;84.82;;;;;;;-2.74;100.00;99562.53;2023774;29;20240;-77
2020/12/22 01:35:36;;;;;;;336.73;87.57;;;;;;;-2.71;100.00;99567.34;2031637;29;20223;-76
2020/12/22 01:36:37;;;;;;;288.55;86.28;;;;;;;-2.81;100.00;99556.50;2032285;29;20228;-77
2020/12/22 01:37:38;;;;;;;247.73;84.87;;;;;;;-2.87;100.00;99564.13;2032364;29;20623;-75
2020/12/22 01:38:39;;;;;;;229.07;81.15;;;;;;;-2.81;100.00;99565.13;2031772;29;20227;-76
2020/12/22 01:39:40;;;;;;;205.80;79.70;;;;;;;-2.74;100.00;99562.53;2031870;29;20243;-76
2020/12/22 01:40:48;;;;;;;322.70;89.75;;;;;;;-2.85;100.00;99556.91;2031513;29;20619;-77
2020/12/22 01:41:50;;;;;;;259.23;84.53;;;;;;;-2.86;100.00;99557.91;2025113;29;20701;-77
2020/12/22 01:42:50;;;;;;;288.23;87.22;;;;;;;-2.82;100.00;99563.53;2031502;29;20275;-76
2020/12/22 01:44:03;;;;;;;255.97;82.37;;;;;;;-2.78;100.00;99574.38;2031429;29;20263;-76
2020/12/22 01:45:04;;;;;;;257.85;84.30;;;;;;;-2.85;100.00;99550.88;2024980;29;20228;-77
2020/12/22 01:46:05;;;;;;;286.20;85.37;;;;;;;-2.79;100.00;99565.72;2023690;29;20228;-76
2020/12/22 01:47:06;;;;;;;363.33;89.18;;;;;;;-2.81;100.00;99561.72;2023724;29;20231;-76
2020/12/22 01:48:07;;;;;;;267.23;83.93;;;;;;;-2.94;100.00;99555.47;2031009;29;20255;-77
2020/12/22 01:49:13;;;;;;;376.75;89.97;;;;;;;-2.90;100.00;99551.44;2031261;29;20227;-76
2020/12/22 01:50:17;;;;;;;249.57;83.35;;;;;;;-2.93;100.00;99538.78;2024298;29;20697;-76
2020/12/22 01:51:19;;;;;;;229.23;80.13;;;;;;;-2.88;100.00;99546.81;2023904;29;20311;-77
2020/12/22 01:52:21;;;;;;;293.38;85.45;;;;;;;-2.87;100.00;99550.25;2031927;29;20243;-77
2020/12/22 01:53:21;;;;;;;284.02;87.30;;;;;;;-2.94;100.00;99554.66;2031537;29;20227;-77
2020/12/22 01:54:23;;;;;;;289.53;85.43;;;;;;;-2.89;100.00;99560.09;2031074;29;20224;-77
2020/12/22 01:55:24;;;;;;;296.88;85.68;;;;;;;-2.97;100.00;99550.63;2031721;29;20583;-77
2020/12/22 01:56:25;;;;;;;256.83;85.80;;;;;;;-2.87;100.00;99558.06;2031459;29;20233;-77
2020/12/22 01:57:27;;;;;;;316.23;86.22;;;;;;;-2.81;100.00;99561.72;2032399;29;20215;-77
2020/12/22 01:58:28;;;;;;;328.77;88.53;;;;;;;-2.85;100.00;99563.94;2032041;29;20220;-78
2020/12/22 01:59:29;;;;;;;333.58;87.00;;;;;;;-2.88;100.00;99549.44;2032206;29;20227;-77
2020/12/22 02:00:30;;;;;;;294.97;84.80;;;;;;;-2.92;100.00;99556.06;2031463;29;20306;-77
2020/12/22 02:01:32;;;;;;;308.77;87.57;;;;;;;-2.94;100.00;99554.66;2031577;29;20681;-76
2020/12/22 02:02:33;;;;;;;413.40;90.43;;;;;;;-2.92;100.00;99556.06;2031620;29;20226;-76
2020/12/22 02:03:34;;;;;;;283.70;83.82;;;;;;;-2.94;100.00;99544.22;2031567;29;20232;-77
2020/12/22 02:04:36;;;;;;;256.57;84.70;;;;;;;-2.90;100.00;99540.19;2031445;29;20749;-77
2020/12/22 02:05:37;;;;;;;329.00;89.68;;;;;;;-2.97;100.00;99531.53;2032071;29;20235;-77
2020/12/22 02:06:39;;;;;;;358.83;90.53;;;;;;;-3.00;100.00;99529.34;2031708;29;20254;-77
2020/12/22 02:07:40;;;;;;;329.05;90.25;;;;;;;-2.99;100.00;99521.31;2031457;29;20238;-76
2020/12/22 02:08:41;;;;;;;351.27;89.47;;;;;;;-2.98;100.00;99525.50;2023913;29;20228;-76
2020/12/22 02:09:43;;;;;;;301.77;85.82;;;;;;;-2.98;100.00;99517.69;2023634;29;20240;-77
2020/12/22 02:10:51;;;;;;;237.93;82.57;;;;;;;-3.01;100.00;99519.91;2031386;29;20749;-77
2020/12/22 02:11:52;;;;;;;309.67;85.18;;;;;;;-3.14;100.00;99500.56;2031780;29;20235;-76
2020/12/22 02:12:54;;;;;;;326.90;88.70;;;;;;;-3.07;100.00;99513.66;2031923;29;20232;-77
2020/12/22 02:13:55;;;;;;;296.38;85.93;;;;;;;-3.09;100.00;99515.66;2031477;29;20582;-77
2020/12/22 02:14:56;;;;;;;233.40;84.05;;;;;;;-3.06;100.00;99509.22;2031462;29;20290;-78
2020/12/22 02:15:57;;;;;;;285.45;85.50;;;;;;;-3.07;100.00;99515.44;2032610;29;20594;-77
2020/12/22 02:16:58;;;;;;;251.63;84.07;;;;;;;-3.10;100.00;99508.84;2032182;29;20318;-78
2020/12/22 02:17:59;;;;;;;310.00;89.00;;;;;;;-3.11;100.00;99512.44;2031206;29;20223;-76
2020/12/22 02:19:00;;;;;;;250.23;83.85;;;;;;;-3.07;100.00;99529.31;2031490;29;20224;-78
2020/12/22 02:20:01;;;;;;;257.60;82.63;;;;;;;-3.10;100.00;99513.25;2023390;29;20239;-77
2020/12/22 02:21:03;;;;;;;232.60;84.53;;;;;;;-3.20;100.00;99501.38;2031796;29;20227;-77
2020/12/22 02:22:04;;;;;;;232.93;83.13;;;;;;;-3.02;100.00;99524.31;2031482;29;20556;-76
2020/12/22 02:23:06;;;;;;;228.32;84.50;;;;;;;-3.06;100.00;99515.25;2031332;29;20270;-76
2020/12/22 02:24:06;;;;;;;299.02;87.43;;;;;;;-3.15;100.00;99500.78;2031947;29;20302;-76
2020/12/22 02:25:15;;;;;;;240.57;84.17;;;;;;;-3.08;100.00;99514.66;2032338;29;20223;-76
2020/12/22 02:26:16;;;;;;;244.63;84.25;;;;;;;-3.14;100.00;99508.41;2032692;29;20278;-75
2020/12/22 02:27:17;;;;;;;266.53;86.67;;;;;;;-3.07;100.00;99518.06;2032857;29;20235;-76
2020/12/22 02:28:17;;;;;;;239.27;85.95;;;;;;;-3.10;100.00;99515.84;2033775;29;20227;-76
2020/12/22 02:29:19;;;;;;;332.33;91.23;;;;;;;-3.10;100.00;99516.66;2034179;29;20231;-76
2020/12/22 02:30:20;;;;;;;285.58;86.43;;;;;;;-3.04;100.00;99528.94;2033607;29;20227;-76
2020/12/22 02:31:23;;;;;;;290.33;84.97;;;;;;;-3.05;100.00;99522.06;2033684;29;20250;-76
2020/12/22 02:32:23;;;;;;;320.08;90.40;;;;;;;-3.06;100.00;99525.69;2033515;29;20279;-77
2020/12/22 02:33:24;;;;;;;248.53;81.80;;;;;;;-3.10;100.00;99505.41;2033409;29;20279;-77
2020/12/22 02:34:25;;;;;;;233.35;82.18;;;;;;;-3.01;100.00;99515.47;2033621;29;20219;-77
2020/12/22 02:35:27;;;;;;;412.17;90.13;;;;;;;-2.93;100.00;99523.13;2032824;29;20247;-77
2020/12/22 02:36:28;;;;;;;458.30;92.65;;;;;;;-2.89;100.00;99518.31;2032837;29;20694;-77
2020/12/22 02:37:30;;;;;;;464.85;94.07;;;;;;;-2.92;100.00;99511.69;2033861;29;20251;-76
2020/12/22 02:38:30;;;;;;;350.80;90.22;;;;;;;-2.90;100.00;99509.69;2032437;29;20238;-77
2020/12/22 02:39:31;;;;;;;248.50;84.73;;;;;;;-2.82;100.00;99516.53;2032735;29;20732;-77
2020/12/22 02:40:32;;;;;;;381.23;87.95;;;;;;;-2.81;100.00;99512.91;2032593;29;20254;-76
2020/12/22 02:41:33;;;;;;;355.03;90.37;;;;;;;-2.83;100.00;99508.91;2032757;29;20224;-76
2020/12/22 02:42:34;;;;;;;296.77;85.97;;;;;;;-2.95;100.00;99509.47;2033425;29;20557;-76
2020/12/22 02:43:35;;;;;;;536.53;97.63;;;;;;;-2.95;100.00;99514.69;2033586;29;20302;-76
2020/12/22 02:44:36;;;;;;;370.92;86.00;;;;;;;-3.11;100.00;99488.16;2033016;29;20227;-77
2020/12/22 02:45:38;;;;;;;477.10;92.80;;;;;;;-3.02;100.00;99511.25;2032193;29;20258;-76
2020/12/22 02:46:39;;;;;;;315.35;90.03;;;;;;;-3.10;100.00;99497.59;2032781;29;20235;-76
2020/12/22 02:47:40;;;;;;;321.55;89.43;;;;;;;-3.07;100.00;99505.00;2033361;29;20228;-76
2020/12/22 02:48:41;;;;;;;372.42;87.47;;;;;;;-3.02;100.00;99497.41;2032577;29;20597;-77
2020/12/22 02:49:43;;;;;;;387.30;89.33;;;;;;;-3.06;100.00;99488.34;2032689;29;20240;-77
2020/12/22 02:50:43;;;;;;;262.88;86.97;;;;;;;-3.02;100.00;99498.22;2032220;29;20223;-76
2020/12/22 02:51:46;;;;;;;370.70;91.53;;;;;;;-3.07;100.00;99487.56;2032691;29;20242;-75
2020/12/22 02:52:46;;;;;;;242.93;81.22;;;;;;;-3.03;100.00;99478.34;2032512;29;20241;-76
2020/12/22 02:53:47;;;;;;;306.90;89.07;;;;;;;-2.98;100.00;99488.97;2033453;29;20231;-76
2020/12/22 02:54:48;;;;;;;425.83;93.55;;;;;;;-3.03;100.00;99478.34;2032982;29;20227;-77
2020/12/22 02:55:49;;;;;;;351.23;90.33;;;;;;;-3.01;100.00;99476.34;2032751;29;20259;-77
2020/12/22 02:56:50;;;;;;;259.83;84.15;;;;;;;-2.98;100.00;99475.94;2032294;29;20234;-77
2020/12/22 02:57:51;;;;;;;237.53;79.93;;;;;;;-2.89;100.00;99485.19;2032786;29;20231;-76
2020/12/22 02:58:52;;;;;;;218.50;81.88;;;;;;;-2.97;100.00;99472.31;2032074;29;20264;-76
2020/12/22 02:59:53;;;;;;;255.67;81.53;;;;;;;-2.77;100.00;99477.59;2033411;29;20263;-76
2020/12/22 03:00:54;;;;;;;287.23;80.50;;;;;;;-2.89;100.00;99453.84;2033481;29;20286;-75
2020/12/22 03:01:55;;;;;;;227.13;79.47;;;;;;;-2.76;100.00;99475.78;2033294;29;20303;-77
2020/12/22 03:02:56;;;;;;;253.88;79.53;;;;;;;-2.84;100.00;99476.75;2032421;29;20228;-75
2020/12/22 03:03:57;;;;;;;221.93;77.90;;;;;;;-2.92;100.00;99472.53;2032758;29;20235;-76
2020/12/22 03:04:58;;;;;;;244.82;79.43;;;;;;;-2.81;100.00;99470.34;2032545;29;20227;-77
2020/12/22 03:06:00;;;;;;;225.10;79.00;;;;;;;-2.96;100.00;99450.41;2033670;29;20227;-77
2020/12/22 03:07:01;;;;;;;263.42;80.15;;;;;;;-2.90;100.00;99461.88;2032797;29;20639;-77
2020/12/22 03:08:03;;;;;;;394.88;84.00;;;;;;;-2.94;100.00;99461.50;2032463;29;20230;-76
2020/12/22 03:09:04;;;;;;;271.98;78.30;;;;;;;-2.86;100.00;99457.91;2032747;29;20283;-78
2020/12/22 03:10:06;;;;;;;275.85;79.47;;;;;;;-2.91;100.00;99460.28;2033213;29;20235;-77
2020/12/22 03:11:07;;;;;;;296.85;82.07;;;;;;;-3.07;100.00;99435.34;2032977;29;20219;-77
2020/12/22 03:12:08;;;;;;;278.80;80.73;;;;;;;-3.02;100.00;99464.28;2033056;29;20251;-77
2020/12/22 03:13:09;;;;;;;334.40;80.90;;;;;;;-3.04;100.00;99463.69;2032634;29;20231;-76
2020/12/22 03:14:10;;;;;;;308.20;77.40;;;;;;;-3.17;100.00;99448.78;2032837;29;20232;-78
2020/12/22 03:15:11;;;;;;;243.13;78.28;;;;;;;-3.20;100.00;99443.97;2032340;29;20223;-76
2020/12/22 03:16:13;;;;;;;414.13;85.88;;;;;;;-3.10;100.00;99458.44;2032566;29;20235;-76
2020/12/22 03:17:13;;;;;;;351.35;80.47;;;;;;;-3.07;100.00;99461.44;2032090;29;20291;-75
2020/12/22 03:18:18;;;;;;;382.47;87.87;;;;;;;-3.14;100.00;99461.44;2025065;29;20284;-77
2020/12/22 03:19:19;;;;;;;438.50;86.00;;;;;;;-3.19;100.00;99460.44;2025290;29;20679;-78
2020/12/22 03:20:21;;;;;;;325.57;81.33;;;;;;;-3.23;100.00;99456.59;2024925;29;20611;-77
2020/12/22 03:21:21;;;;;;;285.42;80.65;;;;;;;-3.18;100.00;99451.59;2032583;29;20246;-77
2020/12/22 03:22:23;;;;;;;244.53;78.57;;;;;;;-3.20;100.00;99456.22;2032081;29;20231;-77
2020/12/22 03:23:24;;;;;;;266.63;83.70;;;;;;;-3.21;100.00;99455.41;2032320;29;20231;-76
2020/12/22 03:24:25;;;;;;;226.70;79.40;;;;;;;-3.30;100.00;99443.56;2032360;29;20291;-77
2020/12/22 03:25:26;;;;;;;292.60;82.82;;;;;;;-3.22;100.00;99456.38;2033194;29;20701;-76
2020/12/22 03:26:27;;;;;;;326.90;83.73;;;;;;;-3.23;100.00;99462.63;2032384;29;20655;-77
2020/12/22 03:27:28;;;;;;;219.73;79.97;;;;;;;-3.21;100.00;99460.63;2032501;29;20232;-77
2020/12/22 03:28:29;;;;;;;208.50;79.93;;;;;;;-3.10;100.00;99456.63;2032508;29;20306;-77
2020/12/22 03:29:30;;;;;;;231.30;81.00;;;;;;;-3.20;100.00;99435.34;2033165;29;20314;-77
2020/12/22 03:30:31;;;;;;;224.53;81.50;;;;;;;-2.98;100.00;99459.47;2032894;29;20223;-77
2020/12/22 03:31:32;;;;;;;254.70;86.15;;;;;;;-2.95;100.00;99454.66;2032164;29;20673;-76
2020/12/22 03:32:33;;;;;;;240.50;79.50;;;;;;;-2.91;100.00;99445.41;2032342;29;20655;-76
2020/12/22 03:33:34;;;;;;;220.00;78.65;;;;;;;-2.96;100.00;99455.63;2033023;29;20705;-78
2020/12/22 03:34:35;;;;;;;222.87;77.90;;;;;;;-3.15;100.00;99433.72;2033074;29;20572;-77
2020/12/22 03:35:36;;;;;;;248.13;78.35;;;;;;;-3.06;100.00;99449.22;2032618;29;20287;-77
2020/12/22 03:36:37;;;;;;;194.97;77.53;;;;;;;-3.08;100.00;99441.56;2031545;29;20264;-77
2020/12/22 03:37:39;;;;;;;208.23;80.05;;;;;;;-3.13;100.00;99425.69;2032286;29;20760;-77
2020/12/22 03:38:40;;;;;;;197.43;77.32;;;;;;;-3.06;100.00;99434.34;2032120;29;20681;-78
2020/12/22 03:39:41;;;;;;;181.70;73.55;;;;;;;-3.01;100.00;99425.94;2032518;29;20227;-76
2020/12/22 03:40:42;;;;;;;207.83;78.00;;;;;;;-2.94;100.00;99438.00;2024738;29;20255;-76
2020/12/22 03:41:43;;;;;;;216.10;77.45;;;;;;;-2.91;100.00;99434.19;2032458;29;20231;-76
2020/12/22 03:42:44;;;;;;;192.67;74.10;;;;;;;-2.94;100.00;99422.34;2033272;29;20240;-77
2020/12/22 03:43:45;;;;;;;204.85;74.50;;;;;;;-3.07;100.00;99417.09;2032366;29;20255;-75
2020/12/22 03:44:47;;;;;;;173.93;74.00;;;;;;;-3.00;100.00;99420.50;2024398;29;20279;-75
2020/12/22 03:45:48;;;;;;;176.93;72.78;;;;;;;-3.03;100.00;99426.16;2024855;29;20236;-78
2020/12/22 03:46:50;;;;;;;192.18;75.45;;;;;;;-3.04;100.00;99424.53;2032118;29;20231;-77
2020/12/22 03:47:51;;;;;;;169.18;72.88;;;;;;;-3.13;100.00;99407.44;2033330;29;20223;-76
2020/12/22 03:48:52;;;;;;;189.00;74.23;;;;;;;-3.14;100.00;99413.66;2032658;29;20235;-77
2020/12/22 03:49:53;;;;;;;189.35;75.47;;;;;;;-3.23;100.00;99407.81;2033099;29;20259;-76
2020/12/22 03:50:54;;;;;;;201.87;77.97;;;;;;;-3.11;100.00;99431.56;2032852;29;20227;-76
2020/12/22 03:51:55;;;;;;;187.63;75.60;;;;;;;-3.13;100.00;99423.91;2032110;29;20604;-76
2020/12/22 03:52:59;;;;;;;197.77;77.37;;;;;;;-3.13;100.00;99431.75;2024377;29;20236;-77
2020/12/22 03:54:00;;;;;;;224.90;79.95;;;;;;;-3.25;100.00;99417.66;2032042;29;20238;-76
2020/12/22 03:55:01;;;;;;;189.40;75.37;;;;;;;-3.19;100.00;99431.72;2024164;29;20231;-77
2020/12/22 03:56:02;;;;;;;177.75;78.03;;;;;;;-3.16;100.00;99439.16;2032446;29;20227;-77
2020/12/22 03:57:04;;;;;;;181.50;78.60;;;;;;;-3.14;100.00;99442.38;2032239;29;20223;-76
2020/12/22 03:58:05;;;;;;;189.80;78.50;;;;;;;-3.14;100.00;99437.13;2032202;29;20736;-77
2020/12/22 03:59:06;;;;;;;185.43;75.13;;;;;;;-3.09;100.00;99437.38;2024151;29;20677;-77
2020/12/22 04:00:07;;;;;;;180.73;79.97;;;;;;;-3.08;100.00;99423.31;2023795;29;20259;-76
2020/12/22 04:01:08;;;;;;;188.70;75.63;;;;;;;-3.08;100.00;99423.31;2024458;29;20265;-77
2020/12/22 04:02:09;;;;;;;206.95;81.75;;;;;;;-3.01;100.00;99431.97;2032051;29;20234;-77
2020/12/22 04:03:11;;;;;;;195.40;79.65;;;;;;;-3.02;100.00;99425.13;2032839;29;20231;-76
2020/12/22 04:04:11;;;;;;;193.55;77.93;;;;;;;-2.99;100.00;99426.53;2032050;29;20751;-77
2020/12/22 04:05:13;;;;;;;207.53;77.70;;;;;;;-2.92;100.00;99425.53;2032092;29;20361;-76
2020/12/22 04:06:14;;;;;;;204.23;77.80;;;;;;;-2.95;100.00;99418.13;2032455;29;20227;-77
2020/12/22 04:07:15;;;;;;;188.93;75.70;;;;;;;-2.97;100.00;99412.28;2032766;29;20227;-78
2020/12/22 04:08:17;;;;;;;177.23;74.25;;;;;;;-2.92;100.00;99422.13;2031881;29;20228;-76
2020/12/22 04:09:19;;;;;;;197.18;78.55;;;;;;;-2.95;100.00;99412.09;2024304;29;20323;-77
2020/12/22 04:10:19;;;;;;;192.88;78.47;;;;;;;-2.91;100.00;99411.50;2024604;29;20228;-76
2020/12/22 04:11:21;;;;;;;203.47;78.33;;;;;;;-2.92;100.00;99417.72;2032111;29;20220;-78
2020/12/22 04:12:22;;;;;;;188.95;78.53;;;;;;;-2.97;100.00;99404.44;2032224;29;20249;-77
2020/12/22 04:13:23;;;;;;;189.07;76.27;;;;;;;-2.93;100.00;99405.66;2032724;29;20231;-77
2020/12/22 04:14:24;;;;;;;195.88;78.32;;;;;;;-2.92;100.00;99399.44;2032867;29;20231;-77
2020/12/22 04:15:25;;;;;;;184.17;77.17;;;;;;;-2.91;100.00;99403.66;2032606;29;20314;-76
2020/12/22 04:16:26;;;;;;;167.75;72.65;;;;;;;-2.90;100.00;99397.44;2031842;29;20231;-77
2020/12/22 04:17:27;;;;;;;175.57;74.73;;;;;;;-2.86;100.00;99398.66;2031977;29;20231;-77
2020/12/22 04:18:28;;;;;;;181.88;74.28;;;;;;;-2.85;100.00;99397.66;2031915;29;20253;-77
2020/12/22 04:19:29;;;;;;;171.77;71.93;;;;;;;-2.81;100.00;99405.06;2024427;29;20224;-77
2020/12/22 04:20:30;;;;;;;203.73;76.57;;;;;;;-2.89;100.00;99399.03;2024211;29;20298;-77
2020/12/22 04:21:31;;;;;;;177.90;74.60;;;;;;;-2.88;100.00;99413.69;2031894;29;20231;-77
2020/12/22 04:22:33;;;;;;;177.85;73.63;;;;;;;-2.87;100.00;99420.53;2032325;29;20278;-77
2020/12/22 04:23:34;;;;;;;178.00;71.30;;;;;;;-2.88;100.00;99425.94;2032649;29;20219;-77
2020/12/22 04:24:35;;;;;;;184.38;74.65;;;;;;;-2.91;100.00;99424.53;2032922;29;20683;-77
2020/12/22 04:25:36;;;;;;;169.48;70.88;;;;;;;-2.96;100.00;99411.28;2032738;29;20295;-77
2020/12/22 04:26:37;;;;;;;178.07;74.87;;;;;;;-2.91;100.00;99419.31;2032036;29;20239;-78
2020/12/22 04:27:38;;;;;;;168.73;71.38;;;;;;;-2.90;100.00;99407.88;2032018;29;20636;-78
2020/12/22 04:28:39;;;;;;;168.90;73.77;;;;;;;-2.95;100.00;99397.25;2031892;29;20278;-77
2020/12/22 04:29:40;;;;;;;179.10;74.03;;;;;;;-2.90;100.00;99394.81;2031870;29;20243;-78
2020/12/22 04:30:41;;;;;;;174.77;73.10;;;;;;;-2.95;100.00;99397.25;2031977;29;20231;-76
2020/12/22 04:31:42;;;;;;;191.32;77.22;;;;;;;-2.92;100.00;99402.06;2032597;29;20231;-76
2020/12/22 04:32:43;;;;;;;173.97;73.00;;;;;;;-2.97;100.00;99385.38;2032668;29;20279;-76
2020/12/22 04:33:44;;;;;;;162.55;71.45;;;;;;;-2.91;100.00;99388.00;2031805;29;20224;-77
2020/12/22 04:34:46;;;;;;;163.63;70.68;;;;;;;-2.92;100.00;99391.63;2032082;29;20227;-75
2020/12/22 04:35:46;;;;;;;171.65;71.90;;;;;;;-2.92;100.00;99386.38;2032021;29;20227;-76